Time;durP1;ratioP1;P1;durP2;ratioP2;P2;SDS_P1;SDS_P2;PMS_P1;PMS_P2;Temp;Humidity;BMP_temperature;BMP_pressure;BME280_temperature;BME280_humidity;BME280_pressure;Samples;Min_cycle;Max_cycle;Signal;HPM_P1;HPM_P2
2023/01/13 00:00:25;;;;;;;41.90;5.97;;;;;;;;;;4930897;28;91765;-68
2023/01/13 00:02:51;;;;;;;34.72;5.22;;;;;;;;;;4923983;28;92755;-68
2023/01/13 00:05:17;;;;;;;43.83;5.53;;;;;;;;;;4930371;28;93429;-68
2023/01/13 00:07:45;;;;;;;36.75;5.25;;;;;;;;;;4927265;28;95260;-69
2023/01/13 00:10:11;;;;;;;39.35;5.68;;;;;;;;;;4933519;28;96787;-68
2023/01/13 00:12:38;;;;;;;31.88;5.70;;;;;;;;;;4938621;28;93446;-68
2023/01/13 00:15:05;;;;;;;43.60;5.60;;;;;;;;;;4933986;28;93266;-68
2023/01/13 00:17:31;;;;;;;41.53;4.93;;;;;;;;;;4937050;28;93798;-68
2023/01/13 00:19:57;;;;;;;33.80;5.53;;;;;;;;;;4937043;28;92470;-69
2023/01/13 00:22:24;;;;;;;40.83;6.32;;;;;;;;;;4937802;28;92448;-69
2023/01/13 00:24:50;;;;;;;39.65;6.05;;;;;;;;;;4936530;28;92649;-69
2023/01/13 00:27:16;;;;;;;42.00;6.28;;;;;;;;;;4936639;28;92699;-69
2023/01/13 00:29:42;;;;;;;36.83;5.30;;;;;;;;;;4936174;28;93632;-69
2023/01/13 00:32:09;;;;;;;38.25;6.45;;;;;;;;;;4934082;28;95809;-69
2023/01/13 00:34:35;;;;;;;44.88;6.88;;;;;;;;;;4937003;28;93200;-69
2023/01/13 00:37:01;;;;;;;38.88;6.43;;;;;;;;;;4921332;28;93328;-69
2023/01/13 00:39:28;;;;;;;47.08;6.55;;;;;;;;;;4936181;28;92480;-69
2023/01/13 00:44:39;;;;;;;46.55;7.03;;;;;;;;;;4935567;28;93415;-69
2023/01/13 00:47:05;;;;;;;37.95;5.30;;;;;;;;;;4936649;28;92596;-68
2023/01/13 00:49:31;;;;;;;44.25;6.20;;;;;;;;;;4936196;28;93366;-69
2023/01/13 00:51:57;;;;;;;41.70;5.97;;;;;;;;;;4936749;28;93752;-69
2023/01/13 00:54:24;;;;;;;44.28;4.90;;;;;;;;;;4936519;28;92782;-69
2023/01/13 00:56:50;;;;;;;40.70;5.88;;;;;;;;;;4935204;28;95889;-68
2023/01/13 00:59:17;;;;;;;44.08;6.68;;;;;;;;;;4939356;28;92749;-69
2023/01/13 01:01:43;;;;;;;33.72;5.13;;;;;;;;;;4936272;28;94301;-68
2023/01/13 01:04:10;;;;;;;43.70;6.15;;;;;;;;;;4945737;28;93901;-69
2023/01/13 01:06:37;;;;;;;38.78;5.18;;;;;;;;;;4937180;28;92570;-68
2023/01/13 01:09:03;;;;;;;30.52;5.57;;;;;;;;;;4943229;28;93683;-68
2023/01/13 01:11:31;;;;;;;40.35;5.25;;;;;;;;;;4939262;28;93791;-68
2023/01/13 01:13:59;;;;;;;34.97;5.93;;;;;;;;;;4935762;28;91776;-69
2023/01/13 01:16:26;;;;;;;40.33;5.70;;;;;;;;;;4937736;28;92563;-68
2023/01/13 01:18:54;;;;;;;42.13;5.25;;;;;;;;;;4933491;28;92730;-68
2023/01/13 01:21:21;;;;;;;44.75;6.32;;;;;;;;;;4934094;28;94898;-68
2023/01/13 01:23:47;;;;;;;38.15;6.63;;;;;;;;;;4935894;28;93507;-68
2023/01/13 01:26:14;;;;;;;37.20;5.57;;;;;;;;;;4936154;28;92548;-68
2023/01/13 01:28:41;;;;;;;46.67;5.93;;;;;;;;;;4934866;28;93552;-68
2023/01/13 01:31:08;;;;;;;53.10;5.88;;;;;;;;;;4934452;28;93446;-68
2023/01/13 01:33:35;;;;;;;28.75;5.57;;;;;;;;;;4934166;28;92530;-69
2023/01/13 01:36:01;;;;;;;45.65;5.72;;;;;;;;;;4935925;28;93200;-68
2023/01/13 01:38:28;;;;;;;35.42;5.25;;;;;;;;;;4934662;28;92664;-69
2023/01/13 01:40:54;;;;;;;39.17;6.75;;;;;;;;;;4935267;28;92892;-68
2023/01/13 01:44:00;;;;;;;40.70;6.05;;;;;;;;;;4935551;28;93582;-68
2023/01/13 01:46:39;;;;;;;48.97;6.05;;;;;;;;;;4934121;28;94934;-68
2023/01/13 01:49:06;;;;;;;40.78;5.80;;;;;;;;;;4936031;28;95742;-68
2023/01/13 01:51:35;;;;;;;36.15;4.82;;;;;;;;;;4934163;28;93448;-68
2023/01/13 01:54:03;;;;;;;36.85;6.20;;;;;;;;;;4935654;28;94079;-68
2023/01/13 01:56:31;;;;;;;35.80;5.28;;;;;;;;;;4937079;28;93197;-69
2023/01/13 01:58:57;;;;;;;46.70;6.38;;;;;;;;;;4934957;28;93870;-69
2023/01/13 02:01:23;;;;;;;43.00;6.97;;;;;;;;;;4938061;28;92566;-69
2023/01/13 02:04:08;;;;;;;38.80;5.93;;;;;;;;;;4934207;28;92815;-69
2023/01/13 02:06:34;;;;;;;40.17;6.15;;;;;;;;;;4935611;28;93177;-68
2023/01/13 02:09:01;;;;;;;55.67;7.30;;;;;;;;;;4937178;28;92527;-68
2023/01/13 02:14:13;;;;;;;47.38;6.65;;;;;;;;;;4930932;28;92591;-69
2023/01/13 02:16:44;;;;;;;49.90;6.80;;;;;;;;;;4934811;28;92723;-69
2023/01/13 02:19:10;;;;;;;;;;;;;;;;;;4933799;28;93519;-69
2023/01/13 02:21:43;;;;;;;46.72;5.63;;;;;;;;;;4935696;28;118241;-69
2023/01/13 02:27:06;;;;;;;64.68;8.07;;;;;;;;;;4934366;28;92482;-69
2023/01/13 02:32:44;;;;;;;39.63;5.60;;;;;;;;;;4934945;28;93677;-70
2023/01/13 02:35:19;;;;;;;38.92;4.47;;;;;;;;;;4933943;28;92699;-69
2023/01/13 02:37:47;;;;;;;42.67;5.63;;;;;;;;;;4933319;28;94883;-69
2023/01/13 02:40:18;;;;;;;57.47;6.35;;;;;;;;;;4935060;28;93604;-69
2023/01/13 02:45:51;;;;;;;38.47;5.35;;;;;;;;;;4935797;28;93881;-69
2023/01/13 02:48:19;;;;;;;49.58;5.97;;;;;;;;;;4935146;28;92505;-68
2023/01/13 02:50:58;;;;;;;45.72;5.85;;;;;;;;;;4934369;28;93384;-69
2023/01/13 02:53:26;;;;;;;35.53;5.35;;;;;;;;;;4932680;28;93467;-68
2023/01/13 02:55:54;;;;;;;38.47;5.95;;;;;;;;;;4935496;28;91732;-67
2023/01/13 02:58:26;;;;;;;44.90;6.00;;;;;;;;;;4935410;28;92484;-67
2023/01/13 03:00:52;;;;;;;41.70;6.88;;;;;;;;;;4931164;28;93810;-67
2023/01/13 03:03:19;;;;;;;43.42;5.93;;;;;;;;;;4913636;28;94915;-68
2023/01/13 03:05:47;;;;;;;42.97;5.38;;;;;;;;;;4932818;28;95618;-68
2023/01/13 03:08:32;;;;;;;46.28;5.65;;;;;;;;;;4937338;28;94939;-68
2023/01/13 03:11:02;;;;;;;48.00;6.40;;;;;;;;;;4935944;28;94169;-67
2023/01/13 03:13:44;;;;;;;43.05;6.90;;;;;;;;;;4932190;28;93535;-68
2023/01/13 03:16:37;;;;;;;45.92;6.32;;;;;;;;;;4935237;28;92468;-67
2023/01/13 03:19:03;;;;;;;48.03;6.32;;;;;;;;;;4943739;28;93883;-67
2023/01/13 03:21:34;;;;;;;40.13;5.50;;;;;;;;;;4944117;28;91771;-68
2023/01/13 03:24:13;;;;;;;48.10;6.90;;;;;;;;;;4934530;28;92490;-67
2023/01/13 03:26:43;;;;;;;37.45;5.75;;;;;;;;;;4935765;28;93253;-67
2023/01/13 03:29:47;;;;;;;38.30;6.32;;;;;;;;;;4935569;28;95849;-67
2023/01/13 03:32:19;;;;;;;38.97;5.95;;;;;;;;;;4864058;28;92878;-68
2023/01/13 03:34:47;;;;;;;42.05;5.90;;;;;;;;;;4874539;28;93988;-67
2023/01/13 03:37:15;;;;;;;40.17;6.30;;;;;;;;;;4858529;28;92673;-67
2023/01/13 03:39:44;;;;;;;37.75;5.60;;;;;;;;;;4867509;28;93225;-67
2023/01/13 03:42:14;;;;;;;43.17;5.40;;;;;;;;;;4857433;28;94339;-66
2023/01/13 03:44:45;;;;;;;33.53;5.30;;;;;;;;;;4876549;28;94439;-67
2023/01/13 03:47:11;;;;;;;35.63;5.20;;;;;;;;;;4858318;29;94503;-67
2023/01/13 03:49:47;;;;;;;40.75;6.10;;;;;;;;;;4858581;29;93852;-67
2023/01/13 03:52:17;;;;;;;45.75;6.47;;;;;;;;;;4865220;28;92541;-67
2023/01/13 03:54:47;;;;;;;35.08;5.82;;;;;;;;;;4858769;28;95184;-67
2023/01/13 03:57:14;;;;;;;39.70;5.75;;;;;;;;;;4864891;28;92566;-67
2023/01/13 03:59:42;;;;;;;40.90;5.28;;;;;;;;;;4868754;28;93214;-67
2023/01/13 04:02:16;;;;;;;53.72;6.32;;;;;;;;;;4869215;28;93361;-67
2023/01/13 04:05:12;;;;;;;42.25;6.25;;;;;;;;;;4948687;28;92547;-67
2023/01/13 04:07:56;;;;;;;26.75;4.45;;;;;;;;;;4855621;28;94564;-67
2023/01/13 04:10:27;;;;;;;28.98;4.68;;;;;;;;;;4855219;29;92684;-67
2023/01/13 04:13:00;;;;;;;36.92;4.57;;;;;;;;;;4864595;28;91747;-66
2023/01/13 04:15:35;;;;;;;21.98;4.22;;;;;;;;;;4859945;28;94309;-67
2023/01/13 04:18:21;;;;;;;31.58;3.75;;;;;;;;;;4845063;29;93984;-66
2023/01/13 04:20:48;;;;;;;27.55;4.47;;;;;;;;;;4859566;28;94862;-68
2023/01/13 04:23:15;;;;;;;23.67;4.03;;;;;;;;;;4858432;29;93533;-68
2023/01/13 04:25:43;;;;;;;24.23;4.15;;;;;;;;;;4856576;28;92652;-67
2023/01/13 04:28:10;;;;;;;24.42;3.15;;;;;;;;;;4861139;28;93059;-68
2023/01/13 04:30:36;;;;;;;24.88;3.33;;;;;;;;;;4857217;28;93531;-67
2023/01/13 04:33:04;;;;;;;18.75;2.58;;;;;;;;;;4864153;28;92722;-67
2023/01/13 04:35:30;;;;;;;19.42;2.80;;;;;;;;;;4860134;28;94694;-67
2023/01/13 04:37:59;;;;;;;19.25;2.85;;;;;;;;;;4863743;28;92583;-67
2023/01/13 04:40:25;;;;;;;13.25;2.97;;;;;;;;;;4864298;28;93001;-67
2023/01/13 04:42:51;;;;;;;19.88;2.83;;;;;;;;;;4862604;28;92734;-67
2023/01/13 04:45:18;;;;;;;16.65;2.33;;;;;;;;;;4938198;28;94993;-67
2023/01/13 04:47:44;;;;;;;11.57;2.17;;;;;;;;;;4935749;28;96136;-67
2023/01/13 04:50:11;;;;;;;14.38;1.90;;;;;;;;;;4935927;28;92513;-67
2023/01/13 04:52:37;;;;;;;13.65;2.88;;;;;;;;;;4946545;28;93031;-67
2023/01/13 04:55:04;;;;;;;17.25;1.95;;;;;;;;;;4944657;28;93625;-67
2023/01/13 04:57:32;;;;;;;9.15;1.70;;;;;;;;;;4934218;28;92686;-67
2023/01/13 04:59:58;;;;;;;21.15;2.15;;;;;;;;;;4948489;28;93278;-67
2023/01/13 05:02:24;;;;;;;22.48;1.98;;;;;;;;;;4943239;28;92806;-67
2023/01/13 05:04:51;;;;;;;14.98;2.60;;;;;;;;;;4947062;28;92477;-67
2023/01/13 05:07:17;;;;;;;11.90;2.13;;;;;;;;;;4942266;28;94336;-67
2023/01/13 05:09:43;;;;;;;20.67;2.78;;;;;;;;;;4942784;28;98246;-67
2023/01/13 05:17:40;;;;;;;18.50;2.38;;;;;;;;;;4927024;28;93438;-67
2023/01/13 05:20:08;;;;;;;18.83;3.10;;;;;;;;;;4946127;28;92486;-67
2023/01/13 05:25:21;;;;;;;15.95;3.00;;;;;;;;;;4934830;28;92768;-67
2023/01/13 05:27:48;;;;;;;20.50;3.47;;;;;;;;;;4936070;28;95801;-66
2023/01/13 05:30:15;;;;;;;22.25;3.17;;;;;;;;;;4934671;28;94829;-66
2023/01/13 05:32:42;;;;;;;20.08;3.05;;;;;;;;;;4935042;28;92809;-67
2023/01/13 05:35:08;;;;;;;23.70;3.10;;;;;;;;;;4934075;28;95185;-66
2023/01/13 05:37:35;;;;;;;22.75;2.60;;;;;;;;;;4934437;28;93446;-67
2023/01/13 05:45:31;;;;;;;20.35;2.45;;;;;;;;;;4938493;28;93416;-67
2023/01/13 05:47:57;;;;;;;21.20;3.35;;;;;;;;;;4935057;28;93687;-66
2023/01/13 05:50:23;;;;;;;20.25;3.35;;;;;;;;;;4936304;28;94456;-66
2023/01/13 05:52:50;;;;;;;15.27;2.28;;;;;;;;;;4944150;28;91950;-66
2023/01/13 05:55:16;;;;;;;35.35;3.65;;;;;;;;;;4939300;28;92984;-66
2023/01/13 05:57:42;;;;;;;21.45;3.35;;;;;;;;;;4937441;28;93474;-66
2023/01/13 06:00:09;;;;;;;32.90;3.35;;;;;;;;;;4945648;28;95140;-66
2023/01/13 06:02:35;;;;;;;28.48;4.18;;;;;;;;;;4952600;28;97133;-66
2023/01/13 06:05:02;;;;;;;29.17;4.50;;;;;;;;;;4933388;28;93529;-66
2023/01/13 06:07:28;;;;;;;19.25;2.72;;;;;;;;;;4938105;28;93120;-66
2023/01/13 06:09:54;;;;;;;19.52;2.35;;;;;;;;;;4943945;28;94258;-66
2023/01/13 06:12:20;;;;;;;21.58;2.75;;;;;;;;;;4948035;28;92503;-67
2023/01/13 06:14:47;;;;;;;15.20;2.92;;;;;;;;;;4941855;28;93896;-67
2023/01/13 06:17:14;;;;;;;30.70;3.40;;;;;;;;;;4936572;28;94975;-67
2023/01/13 06:19:41;;;;;;;18.58;3.40;;;;;;;;;;4933988;28;93388;-67
2023/01/13 06:22:10;;;;;;;29.50;4.65;;;;;;;;;;4935591;28;93343;-70
2023/01/13 06:24:36;;;;;;;29.23;4.30;;;;;;;;;;4952024;28;95841;-66
2023/01/13 06:27:03;;;;;;;22.17;3.58;;;;;;;;;;4941813;28;92528;-66
2023/01/13 06:29:30;;;;;;;26.38;3.75;;;;;;;;;;4950759;28;93866;-66
2023/01/13 06:31:56;;;;;;;25.98;3.72;;;;;;;;;;4935315;28;94213;-66
2023/01/13 06:34:23;;;;;;;33.45;3.90;;;;;;;;;;4953237;28;94181;-66
2023/01/13 06:36:51;;;;;;;34.72;4.70;;;;;;;;;;4945901;28;94710;-66
2023/01/13 06:39:18;;;;;;;31.75;3.72;;;;;;;;;;4941963;28;92796;-69
2023/01/13 06:44:31;;;;;;;31.17;4.10;;;;;;;;;;4915380;28;93880;-69
2023/01/13 06:46:58;;;;;;;29.35;3.92;;;;;;;;;;4934459;28;93035;-69
2023/01/13 06:49:24;;;;;;;27.02;3.90;;;;;;;;;;4939015;28;95401;-69
2023/01/13 06:51:50;;;;;;;25.70;3.30;;;;;;;;;;4936703;28;93476;-68
2023/01/13 06:54:17;;;;;;;25.90;3.85;;;;;;;;;;4948684;28;93096;-68
2023/01/13 06:56:43;;;;;;;28.63;3.22;;;;;;;;;;4937323;28;95006;-68
2023/01/13 06:59:09;;;;;;;33.22;3.80;;;;;;;;;;4947981;28;93992;-68
2023/01/13 07:01:36;;;;;;;33.05;4.43;;;;;;;;;;4935495;28;93507;-68
2023/01/13 07:04:02;;;;;;;27.10;4.00;;;;;;;;;;4952624;28;93442;-66
2023/01/13 07:06:29;;;;;;;28.48;3.65;;;;;;;;;;4948996;28;91852;-69
2023/01/13 07:08:55;;;;;;;30.05;4.35;;;;;;;;;;4940221;28;93824;-69
2023/01/13 07:11:21;;;;;;;36.13;5.28;;;;;;;;;;4952607;28;93558;-69
2023/01/13 07:16:33;;;;;;;27.90;4.88;;;;;;;;;;4939294;28;94107;-68
2023/01/13 07:18:59;;;;;;;25.67;3.58;;;;;;;;;;4936215;28;94596;-68
2023/01/13 07:21:25;;;;;;;24.98;3.80;;;;;;;;;;4936094;28;93492;-68
2023/01/13 07:23:52;;;;;;;25.80;3.30;;;;;;;;;;4939821;28;93713;-68
2023/01/13 07:26:18;;;;;;;31.80;5.18;;;;;;;;;;4937669;28;92448;-68
2023/01/13 07:28:44;;;;;;;29.92;4.50;;;;;;;;;;4937921;28;92675;-68
2023/01/13 07:31:12;;;;;;;33.15;4.28;;;;;;;;;;4936950;28;92709;-69
2023/01/13 07:33:39;;;;;;;33.08;5.38;;;;;;;;;;4938480;28;92950;-69
2023/01/13 07:36:06;;;;;;;35.05;4.25;;;;;;;;;;4937072;28;94551;-66
2023/01/13 07:38:32;;;;;;;25.52;3.60;;;;;;;;;;4935530;28;94792;-66
2023/01/13 07:43:30;;;;;;;32.08;4.10;;;;;;;;;;4926154;28;95957;-69
2023/01/13 07:43:48;;;;;;;32.88;4.43;;;;;;;;;;4931145;28;93786;-66
2023/01/13 07:46:15;;;;;;;30.58;4.70;;;;;;;;;;4940657;28;93036;-68
2023/01/13 07:48:42;;;;;;;22.50;4.53;;;;;;;;;;4945520;28;93693;-68
2023/01/13 07:51:09;;;;;;;41.40;5.15;;;;;;;;;;4936990;28;93487;-68
2023/01/13 07:53:36;;;;;;;25.15;3.75;;;;;;;;;;4949559;28;92605;-68
2023/01/13 07:56:04;;;;;;;33.22;4.53;;;;;;;;;;4942038;28;94531;-68
2023/01/13 07:58:31;;;;;;;18.00;3.47;;;;;;;;;;4956318;28;92696;-67
2023/01/13 08:00:57;;;;;;;22.20;3.70;;;;;;;;;;4952828;28;93487;-68
2023/01/13 08:03:25;;;;;;;22.27;3.95;;;;;;;;;;4953987;28;96370;-67
2023/01/13 08:05:51;;;;;;;26.83;4.47;;;;;;;;;;4957116;28;92628;-67
2023/01/13 08:08:18;;;;;;;34.42;4.10;;;;;;;;;;4953385;28;94183;-67
2023/01/13 08:10:44;;;;;;;29.23;4.40;;;;;;;;;;4944807;28;93347;-68
2023/01/13 08:13:19;;;;;;;32.55;4.68;;;;;;;;;;4942898;28;92473;-67
2023/01/13 08:15:47;;;;;;;30.65;4.65;;;;;;;;;;4938197;28;93582;-67
2023/01/13 08:18:14;;;;;;;43.60;4.40;;;;;;;;;;4940129;28;93456;-68
2023/01/13 08:20:40;;;;;;;33.15;3.55;;;;;;;;;;4937016;28;93157;-68
2023/01/13 08:23:07;;;;;;;33.38;5.30;;;;;;;;;;4937293;28;93655;-68
2023/01/13 08:25:33;;;;;;;27.20;4.22;;;;;;;;;;4935662;28;92564;-68
2023/01/13 08:27:59;;;;;;;21.00;3.75;;;;;;;;;;4934577;28;94838;-68
2023/01/13 08:30:26;;;;;;;24.58;3.42;;;;;;;;;;4937685;28;93896;-68
2023/01/13 08:32:53;;;;;;;29.25;4.40;;;;;;;;;;4934557;28;93138;-68
2023/01/13 08:35:19;;;;;;;32.75;4.57;;;;;;;;;;4945096;28;93750;-68
2023/01/13 08:37:46;;;;;;;22.02;4.07;;;;;;;;;;4933618;28;93686;-68
2023/01/13 08:40:13;;;;;;;27.33;4.40;;;;;;;;;;4936824;28;92680;-68
2023/01/13 08:42:40;;;;;;;31.52;4.68;;;;;;;;;;4953960;28;93425;-68
2023/01/13 08:45:07;;;;;;;38.05;5.00;;;;;;;;;;4954369;28;91788;-67
2023/01/13 08:47:33;;;;;;;26.13;3.97;;;;;;;;;;4936951;28;92471;-68
2023/01/13 08:50:00;;;;;;;31.80;4.82;;;;;;;;;;4940609;28;93488;-68
2023/01/13 08:52:27;;;;;;;34.92;4.60;;;;;;;;;;4949410;28;95001;-68
2023/01/13 08:54:53;;;;;;;32.13;4.50;;;;;;;;;;4944667;28;95559;-68
2023/01/13 08:57:20;;;;;;;29.60;5.60;;;;;;;;;;4935081;28;93635;-67
2023/01/13 08:59:46;;;;;;;32.88;4.68;;;;;;;;;;4935640;28;92466;-67
2023/01/13 09:02:13;;;;;;;36.45;5.40;;;;;;;;;;4937544;28;95396;-67
2023/01/13 09:04:40;;;;;;;42.53;4.70;;;;;;;;;;4943540;28;92641;-68
2023/01/13 09:07:07;;;;;;;39.55;4.85;;;;;;;;;;4939066;28;94578;-67
2023/01/13 09:09:34;;;;;;;36.22;5.97;;;;;;;;;;4937527;28;93361;-68
2023/01/13 09:14:45;;;;;;;40.28;4.45;;;;;;;;;;4952477;28;92498;-67
2023/01/13 09:17:11;;;;;;;32.40;5.53;;;;;;;;;;4933608;28;95978;-67
2023/01/13 09:19:38;;;;;;;24.10;4.38;;;;;;;;;;4935954;28;92552;-68
2023/01/13 09:22:04;;;;;;;34.80;5.03;;;;;;;;;;4939571;28;94349;-68
2023/01/13 09:24:30;;;;;;;40.17;5.35;;;;;;;;;;4943302;28;94329;-68
2023/01/13 09:26:57;;;;;;;37.38;4.60;;;;;;;;;;4956452;28;93258;-68
2023/01/13 09:29:23;;;;;;;34.65;4.72;;;;;;;;;;4954508;28;93459;-67
2023/01/13 09:31:50;;;;;;;33.33;4.60;;;;;;;;;;4936858;28;93247;-68
2023/01/13 09:37:03;;;;;;;34.63;5.55;;;;;;;;;;4931422;28;94011;-68
2023/01/13 09:39:31;;;;;;;19.45;3.95;;;;;;;;;;4941014;28;92759;-67
2023/01/13 09:44:56;;;;;;;26.38;3.92;;;;;;;;;;4952856;28;94472;-67
2023/01/13 09:47:22;;;;;;;26.98;3.63;;;;;;;;;;4935657;28;93695;-67
2023/01/13 09:49:49;;;;;;;25.15;4.20;;;;;;;;;;4934857;28;93441;-67
2023/01/13 09:52:20;;;;;;;34.63;4.40;;;;;;;;;;4951448;28;92772;-68
2023/01/13 09:54:49;;;;;;;35.10;5.03;;;;;;;;;;4954489;28;93869;-68
2023/01/13 09:57:16;;;;;;;27.90;4.25;;;;;;;;;;4954932;28;93613;-67
2023/01/13 09:59:43;;;;;;;29.45;3.90;;;;;;;;;;4944519;28;91956;-67
2023/01/13 10:02:09;;;;;;;31.70;5.20;;;;;;;;;;4935862;28;92639;-68
2023/01/13 10:04:35;;;;;;;22.38;3.38;;;;;;;;;;4950570;28;93444;-68
2023/01/13 10:07:04;;;;;;;26.70;3.83;;;;;;;;;;4953482;28;95004;-68
2023/01/13 10:09:48;;;;;;;33.50;5.97;;;;;;;;;;4951646;28;93438;-68
2023/01/13 10:15:04;;;;;;;26.15;4.07;;;;;;;;;;4934322;28;94398;-68
2023/01/13 10:17:38;;;;;;;32.10;4.55;;;;;;;;;;4932321;28;95286;-68
2023/01/13 10:20:21;;;;;;;34.22;5.18;;;;;;;;;;4923166;28;92612;-68
2023/01/13 10:22:56;;;;;;;28.85;3.55;;;;;;;;;;4928043;28;95693;-68
2023/01/13 10:25:44;;;;;;;26.30;3.72;;;;;;;;;;4935604;28;93042;-67
2023/01/13 10:28:12;;;;;;;35.75;4.65;;;;;;;;;;4936129;28;93289;-68
2023/01/13 10:30:42;;;;;;;27.52;3.83;;;;;;;;;;4936945;28;93116;-68
2023/01/13 10:33:11;;;;;;;29.08;3.58;;;;;;;;;;4931662;28;94899;-68
2023/01/13 10:35:47;;;;;;;33.13;5.10;;;;;;;;;;4947762;28;95755;-68
2023/01/13 10:38:18;;;;;;;25.27;5.43;;;;;;;;;;4954622;28;94032;-68
2023/01/13 10:40:55;;;;;;;23.50;4.22;;;;;;;;;;4929839;28;92880;-68
2023/01/13 10:43:22;;;;;;;36.67;4.55;;;;;;;;;;4915962;28;92714;-70
2023/01/13 10:45:55;;;;;;;27.50;3.85;;;;;;;;;;4933386;28;93643;-70
2023/01/13 10:48:22;;;;;;;37.58;4.75;;;;;;;;;;4947547;28;92950;-68
2023/01/13 10:50:48;;;;;;;36.78;5.05;;;;;;;;;;4940858;28;93177;-68
2023/01/13 10:53:16;;;;;;;29.92;4.10;;;;;;;;;;4939267;28;93592;-67
2023/01/13 10:55:43;;;;;;;28.85;4.53;;;;;;;;;;4947189;28;93104;-68
2023/01/13 10:58:16;;;;;;;34.85;4.80;;;;;;;;;;4936685;28;95763;-68
2023/01/13 11:00:43;;;;;;;22.38;3.75;;;;;;;;;;4936926;28;92826;-68
2023/01/13 11:03:20;;;;;;;36.28;5.47;;;;;;;;;;4949284;28;92465;-67
2023/01/13 11:05:47;;;;;;;36.15;5.18;;;;;;;;;;4946029;28;93924;-67
2023/01/13 11:08:15;;;;;;;42.08;4.47;;;;;;;;;;4951853;28;93889;-68
2023/01/13 11:10:46;;;;;;;30.52;4.38;;;;;;;;;;4954630;28;93163;-68
2023/01/13 11:13:18;;;;;;;25.83;4.75;;;;;;;;;;4939165;28;93632;-67
2023/01/13 11:15:52;;;;;;;28.95;4.40;;;;;;;;;;4942161;28;91847;-68
2023/01/13 11:18:39;;;;;;;25.13;4.28;;;;;;;;;;4939936;28;93473;-68
2023/01/13 11:21:08;;;;;;;24.63;4.22;;;;;;;;;;4953037;28;92510;-68
2023/01/13 11:23:37;;;;;;;21.65;3.88;;;;;;;;;;4952807;28;94877;-68
2023/01/13 11:26:09;;;;;;;24.48;3.55;;;;;;;;;;4954511;28;94323;-67
2023/01/13 11:28:44;;;;;;;30.48;4.60;;;;;;;;;;4939570;28;93184;-68
2023/01/13 11:31:20;;;;;;;31.33;4.40;;;;;;;;;;4935882;28;93332;-68
2023/01/13 11:33:49;;;;;;;24.20;3.63;;;;;;;;;;4950845;28;93682;-67
2023/01/13 11:36:30;;;;;;;24.58;3.58;;;;;;;;;;4939651;28;92551;-68
2023/01/13 11:38:56;;;;;;;;;;;;;;;;;;4935183;28;94254;-67
2023/01/13 11:41:22;;;;;;;30.52;3.60;;;;;;;;;;4938541;28;118442;-67
2023/01/13 11:43:48;;;;;;;24.52;3.03;;;;;;;;;;4935716;28;92766;-68
2023/01/13 11:46:15;;;;;;;23.55;3.33;;;;;;;;;;4938131;28;93862;-67
2023/01/13 11:48:41;;;;;;;22.67;3.10;;;;;;;;;;4954994;28;94906;-67
2023/01/13 11:51:16;;;;;;;24.05;3.60;;;;;;;;;;4942068;28;96990;-68
2023/01/13 11:53:52;;;;;;;20.77;3.33;;;;;;;;;;4935586;28;93432;-67
2023/01/13 11:56:18;;;;;;;19.60;2.97;;;;;;;;;;4933439;28;92460;-67
2023/01/13 11:58:47;;;;;;;24.30;3.17;;;;;;;;;;4921150;28;93165;-68
2023/01/13 12:01:25;;;;;;;23.85;3.67;;;;;;;;;;4934021;28;92478;-67
2023/01/13 12:03:57;;;;;;;15.60;2.97;;;;;;;;;;4940318;28;93585;-68
2023/01/13 12:06:30;;;;;;;24.73;3.22;;;;;;;;;;4955043;28;93298;-68
2023/01/13 12:09:01;;;;;;;23.05;3.33;;;;;;;;;;4955366;28;92548;-68
2023/01/13 12:14:39;;;;;;;23.50;3.42;;;;;;;;;;4954177;28;95785;-68
2023/01/13 12:17:08;;;;;;;18.45;2.72;;;;;;;;;;4943879;28;93094;-67
2023/01/13 12:19:35;;;;;;;25.83;3.65;;;;;;;;;;4934313;28;92991;-67
2023/01/13 12:22:10;;;;;;;19.50;3.20;;;;;;;;;;4934639;28;94539;-68
2023/01/13 12:24:39;;;;;;;16.95;3.55;;;;;;;;;;4937394;28;93336;-68
2023/01/13 12:27:12;;;;;;;19.65;3.22;;;;;;;;;;4938629;28;93493;-68
2023/01/13 12:29:38;;;;;;;22.10;3.05;;;;;;;;;;4953007;28;92669;-68
2023/01/13 12:32:09;;;;;;;25.38;3.30;;;;;;;;;;4938231;28;93412;-67
2023/01/13 12:34:46;;;;;;;18.73;3.20;;;;;;;;;;4951620;28;93879;-67
2023/01/13 12:37:12;;;;;;;24.27;4.07;;;;;;;;;;4956805;28;92402;-68
2023/01/13 12:39:41;;;;;;;31.65;4.38;;;;;;;;;;4947034;28;95116;-68
2023/01/13 12:45:11;;;;;;;20.73;3.15;;;;;;;;;;4951749;28;92782;-68
2023/01/13 12:47:38;;;;;;;18.77;3.20;;;;;;;;;;4941078;28;93459;-68
2023/01/13 12:50:20;;;;;;;21.60;3.10;;;;;;;;;;4928457;28;92606;-68
2023/01/13 12:52:51;;;;;;;26.23;4.07;;;;;;;;;;4926123;28;92447;-68
2023/01/13 12:55:17;;;;;;;;;;;;;;;;;;4951608;28;93266;-67
2023/01/13 12:57:56;;;;;;;18.98;3.25;;;;;;;;;;4948938;28;118331;-68
2023/01/13 13:00:22;;;;;;;14.35;2.85;;;;;;;;;;4955425;28;94879;-68
2023/01/13 13:03:08;;;;;;;24.73;3.45;;;;;;;;;;4954456;28;93995;-68
2023/01/13 13:05:52;;;;;;;14.43;2.75;;;;;;;;;;4953015;28;94876;-68
2023/01/13 13:08:21;;;;;;;23.65;3.75;;;;;;;;;;4956864;28;95852;-68
2023/01/13 13:11:05;;;;;;;29.27;4.10;;;;;;;;;;4953740;28;92458;-68
2023/01/13 13:13:43;;;;;;;14.50;2.83;;;;;;;;;;4936448;28;93264;-67
2023/01/13 13:16:25;;;;;;;14.27;2.95;;;;;;;;;;4935744;28;93469;-68
2023/01/13 13:19:11;;;;;;;18.10;3.08;;;;;;;;;;4948063;28;92399;-68
2023/01/13 13:21:56;;;;;;;21.60;3.63;;;;;;;;;;4895181;28;93518;-68
2023/01/13 13:24:23;;;;;;;18.30;2.70;;;;;;;;;;4935453;28;96335;-68
2023/01/13 13:26:50;;;;;;;15.23;3.10;;;;;;;;;;4940120;28;92520;-68
2023/01/13 13:29:28;;;;;;;12.20;2.60;;;;;;;;;;4948983;28;93182;-68
2023/01/13 13:32:10;;;;;;;12.88;2.67;;;;;;;;;;4941041;28;95181;-68
2023/01/13 13:34:39;;;;;;;17.65;2.72;;;;;;;;;;4954357;28;95474;-68
2023/01/13 13:37:16;;;;;;;17.73;1.92;;;;;;;;;;4943080;28;93747;-67
2023/01/13 13:48:29;;;;;;;16.60;2.90;;;;;;;;;;4932831;28;92441;-67
2023/01/13 13:51:00;;;;;;;13.60;2.17;;;;;;;;;;4933421;28;93275;-68
2023/01/13 13:53:30;;;;;;;23.92;3.65;;;;;;;;;;4939933;28;93296;-68
2023/01/13 13:56:00;;;;;;;11.38;2.25;;;;;;;;;;4932723;28;93205;-68
2023/01/13 13:58:28;;;;;;;15.25;2.72;;;;;;;;;;4934282;28;96126;-68
2023/01/13 14:00:55;;;;;;;17.02;2.90;;;;;;;;;;4931387;28;92895;-68
2023/01/13 14:03:25;;;;;;;23.77;3.28;;;;;;;;;;4935906;28;93447;-68
2023/01/13 14:05:53;;;;;;;19.73;2.63;;;;;;;;;;4929366;28;93751;-68
2023/01/13 14:08:20;;;;;;;20.60;3.90;;;;;;;;;;4922329;28;92517;-68
2023/01/13 14:10:47;;;;;;;18.92;2.75;;;;;;;;;;4933845;28;93171;-68
2023/01/13 14:13:17;;;;;;;19.70;2.95;;;;;;;;;;4935435;28;93193;-67
2023/01/13 14:15:44;;;;;;;22.08;2.92;;;;;;;;;;4938270;28;92111;-68
2023/01/13 14:18:18;;;;;;;19.25;2.95;;;;;;;;;;4950119;28;97738;-67
2023/01/13 14:20:59;;;;;;;21.40;3.20;;;;;;;;;;4943814;28;92393;-67
2023/01/13 14:23:30;;;;;;;16.95;2.88;;;;;;;;;;4934206;28;95760;-67
2023/01/13 14:26:06;;;;;;;16.42;3.15;;;;;;;;;;4952070;28;93785;-68
2023/01/13 14:28:35;;;;;;;17.65;3.42;;;;;;;;;;4955608;28;92379;-67
2023/01/13 14:31:03;;;;;;;16.05;2.45;;;;;;;;;;4939736;28;93367;-68
2023/01/13 14:33:37;;;;;;;19.38;2.75;;;;;;;;;;4934296;28;92402;-68
2023/01/13 14:36:22;;;;;;;24.80;3.33;;;;;;;;;;4939484;28;92523;-67
2023/01/13 14:39:13;;;;;;;22.02;3.63;;;;;;;;;;4952569;28;93113;-67
2023/01/13 14:41:45;;;;;;;24.35;3.50;;;;;;;;;;4936258;28;92044;-67
2023/01/13 14:44:12;;;;;;;13.55;2.75;;;;;;;;;;4931233;28;92480;-68
2023/01/13 14:46:39;;;;;;;18.83;2.60;;;;;;;;;;4928907;28;93481;-68
2023/01/13 14:49:22;;;;;;;17.25;2.72;;;;;;;;;;4933938;28;95116;-68
2023/01/13 14:51:48;;;;;;;25.98;3.70;;;;;;;;;;4916365;28;96514;-68
2023/01/13 14:54:33;;;;;;;15.70;2.67;;;;;;;;;;4920623;28;94132;-68
2023/01/13 14:57:11;;;;;;;20.00;3.35;;;;;;;;;;4945198;28;92890;-68
2023/01/13 14:59:50;;;;;;;16.52;2.88;;;;;;;;;;4937444;28;93181;-68
2023/01/13 15:02:29;;;;;;;18.08;2.42;;;;;;;;;;4937910;28;92464;-68
2023/01/13 15:04:58;;;;;;;17.33;2.72;;;;;;;;;;4932878;28;93293;-68
2023/01/13 15:07:25;;;;;;;20.08;3.08;;;;;;;;;;4935007;28;92677;-68
2023/01/13 15:09:53;;;;;;;23.40;3.33;;;;;;;;;;4934894;28;92798;-68
2023/01/13 15:12:39;;;;;;;23.38;3.55;;;;;;;;;;4954137;28;93248;-68
2023/01/13 15:15:17;;;;;;;28.17;3.70;;;;;;;;;;4950329;28;96761;-68
2023/01/13 15:17:45;;;;;;;20.95;3.08;;;;;;;;;;4935357;28;92818;-68
2023/01/13 15:20:13;;;;;;;21.58;3.42;;;;;;;;;;4933812;28;92569;-68
2023/01/13 15:22:39;;;;;;;23.65;4.20;;;;;;;;;;4934116;28;93682;-67
2023/01/13 15:25:08;;;;;;;17.70;3.45;;;;;;;;;;4939315;28;92509;-68
2023/01/13 15:27:35;;;;;;;18.40;2.25;;;;;;;;;;4941066;28;93432;-68
2023/01/13 15:30:02;;;;;;;18.42;2.83;;;;;;;;;;4950645;28;92721;-68
2023/01/13 15:32:29;;;;;;;19.65;3.15;;;;;;;;;;4956239;28;93251;-67
2023/01/13 15:34:55;;;;;;;15.48;2.50;;;;;;;;;;4947085;28;92818;-68
2023/01/13 15:37:23;;;;;;;18.90;2.70;;;;;;;;;;4952876;28;92503;-68
2023/01/13 15:39:49;;;;;;;17.60;2.92;;;;;;;;;;4946221;28;94852;-67
2023/01/13 15:47:45;;;;;;;18.60;3.15;;;;;;;;;;4949927;28;93294;-67
2023/01/13 15:50:13;;;;;;;20.95;2.47;;;;;;;;;;4942571;28;92578;-68